CheckWX is a tool to help pilots better visualize weather data.  It is not intended as a substitute for an official pre-flight weather briefing.

12:35:37 UTC

KNGP METAR
Airport
Corpus Christi, Texas, USA
Current

40 mins ago

KNGP 181156Z AUTO 04021KT 10SM OVC032 13/06 A3003 RMK AO2 PK WND 05031/1110 SLP167 70005 T01330061 10150 20128 53011 $
Observed
Feb-18 @ 11:56 UTC
Wind
  • 040° at 21 KTS
Visibility
10 SM
Flight Rules
VFR
Cloud Levels
  • Overcast at 3,200' AGL
Temperature
13°C / 55°F
Dewpoint
C / 43°F
Humidity
63%
Altimeter
30.03" Hg
Pressure
1016.7 hPa
Previous

2 hours ago

KNGP 181056Z AUTO 05018G29KT 10SM OVC032 14/07 A3001 RMK AO2 PK WND 04029/1047 SLP161 T01390072 $
Observed
Feb-18 @ 10:56 UTC
Wind
  • 050° at 18 KTS
  • Gusting to 29 KTS
Visibility
10 SM
Flight Rules
VFR
Cloud Levels
  • Overcast at 3,200' AGL
Temperature
14°C / 57°F
Dewpoint
C / 45°F
Humidity
63%
Altimeter
30.01" Hg
Pressure
1016.1 hPa
Previous

3 hours ago

KNGP 180956Z AUTO 03021KT 10SM OVC032 13/07 A3000 RMK AO2 PK WND 02029/0911 SLP159 T01280067 $
Observed
Feb-18 @ 09:56 UTC
Wind
  • 030° at 21 KTS
Visibility
10 SM
Flight Rules
VFR
Cloud Levels
  • Overcast at 3,200' AGL
Temperature
13°C / 55°F
Dewpoint
C / 45°F
Humidity
67%
Altimeter
30" Hg
Pressure
1015.9 hPa